Pagina principală
METAR-TAF:

METAR-TAF

Aeroporturi :

Wanaham

Lifou, Noua Caledonie

Latitudine: 20-46S, longitudine: 167-14E, elevație: 28 m

METAR: lipsă

Ora: 20:44 (09:44 UTC)

Prognoză

Raportul a fost făcut în urmă cu 16 ore și 44 de minute, la 17:00 UTC
Prognoză valabilă de la 17 ora 18 UTC la 18 ora 18 UTC
Vânt 12 kt de la Est/Sud-est
Vizibilitate de 10 km sau mai mult
Nori puțini la o înălțime de 2500 picior
Temporar
de la 18 ora 03 UTC la 18 ora 18 UTC
averse de ploaie
Probabilitate 40% :
Temporar
de la 18 ora 09 UTC la 18 ora 18 UTC
Vizibilitate: 4000 m
Nori fragmentați la o înălțime de 1400 picior
Nori puțini la o înălțime de 2000 picior, Cumulus congestus.
averse de ploaie,

TAF: NWWL 171700Z 1718/1818 12012KT 9999 FEW025 TEMPO 1803/1818 SHRA PROB40 TEMPO 1809/1818 4000 SHRA BKN014 FEW020TCU

Observații și prognoze meteo pentru peste 4.000 de aeroporturi (rapoarte METAR și TAF).

Stațiile disponibile sunt reprezentate pe hartă prin puncte galbene și roșii.

Țineți indicatorul mouse-ului pe punctul dorit pentru a vedea denumirea stației.

Apoi, faceți clic pentru a vedea observațiile și prognozele meteorologice.

Pentru a schimba harta: Pentru mărire, faceți clic pe butoanele verzi cu cruce neagră; pentru micșorare, pe butonul verde cu o liniuță; pentru hărți învecinate, pe săgețile verzi.


METAR-TAF: